createdAt,value
2023-03-30T00:00:20.235Z,39.58
2023-03-30T00:02:50.804Z,42.78
2023-03-30T00:05:18.646Z,45.78
2023-03-30T00:07:45.994Z,36.42
2023-03-30T00:10:17.743Z,40.92
2023-03-30T00:12:47.204Z,37.50
2023-03-30T00:15:16.604Z,41.22
2023-03-30T00:17:43.940Z,38.45
2023-03-30T00:20:11.992Z,51.15
2023-03-30T00:22:40.127Z,44.97
2023-03-30T00:25:08.955Z,48.90
2023-03-30T00:27:38.851Z,43.25
2023-03-30T00:30:07.311Z,42.47
2023-03-30T00:32:37.052Z,50.22
2023-03-30T00:35:05.374Z,44.08
2023-03-30T00:37:32.437Z,43.53
2023-03-30T00:39:58.987Z,43.85
2023-03-30T00:42:25.651Z,44.70
2023-03-30T00:44:57.954Z,44.55
2023-03-30T00:47:25.349Z,44.22
2023-03-30T00:49:53.325Z,42.80
2023-03-30T00:52:24.965Z,44.42
2023-03-30T00:54:55.910Z,40.65
2023-03-30T00:57:24.820Z,43.08
2023-03-30T00:59:53.469Z,46.33
2023-03-30T01:02:21.695Z,46.55
2023-03-30T01:04:51.402Z,47.58
2023-03-30T01:07:18.754Z,50.70
2023-03-30T01:09:45.733Z,43.95
2023-03-30T01:12:12.389Z,46.85
2023-03-30T01:14:39.159Z,45.45
2023-03-30T01:17:55.165Z,46.42
2023-03-30T01:20:41.421Z,50.40
2023-03-30T01:23:18.749Z,52.03
2023-03-30T01:26:00.533Z,48.53
2023-03-30T01:28:35.867Z,52.50
2023-03-30T01:31:41.896Z,60.08
2023-03-30T01:34:32.659Z,48.88
2023-03-30T01:37:33.732Z,55.47
2023-03-30T01:40:13.661Z,54.97
2023-03-30T01:42:49.104Z,46.20
2023-03-30T01:45:33.860Z,46.97
2023-03-30T01:48:33.229Z,51.58
2023-03-30T01:51:05.777Z,49.05
2023-03-30T01:53:42.628Z,47.70
2023-03-30T01:56:30.347Z,54.78
2023-03-30T01:59:04.126Z,44.13
2023-03-30T02:01:33.811Z,49.22
2023-03-30T02:04:02.158Z,44.15
2023-03-30T02:06:40.805Z,41.53
2023-03-30T02:09:11.340Z,46.10
2023-03-30T02:11:41.714Z,46.45
2023-03-30T02:14:10.894Z,49.45
2023-03-30T02:16:48.645Z,48.22
2023-03-30T02:19:15.711Z,44.72
2023-03-30T02:21:43.237Z,43.28
2023-03-30T02:24:17.915Z,44.10
2023-03-30T02:26:49.302Z,41.17
2023-03-30T02:29:16.675Z,43.67
2023-03-30T02:31:49.725Z,49.42
2023-03-30T02:34:52.041Z,37.63
2023-03-30T02:37:47.065Z,45.80
2023-03-30T02:40:17.177Z,47.20
2023-03-30T02:43:12.130Z,52.15
2023-03-30T02:46:03.037Z,46.60
2023-03-30T02:49:04.993Z,49.42
2023-03-30T02:51:34.759Z,45.45
2023-03-30T02:54:10.511Z,50.95
2023-03-30T02:56:56.593Z,53.88
2023-03-30T02:59:30.765Z,47.13
2023-03-30T03:02:12.192Z,46.75
2023-03-30T03:04:43.637Z,44.53
2023-03-30T03:07:13.159Z,54.30
2023-03-30T03:09:40.111Z,50.55
2023-03-30T03:12:07.179Z,48.90
2023-03-30T03:14:33.933Z,47.97
2023-03-30T03:17:00.533Z,44.63
2023-03-30T03:19:27.129Z,43.25
2023-03-30T03:21:53.666Z,42.33
2023-03-30T03:24:20.238Z,41.38
2023-03-30T03:26:46.782Z,52.42
2023-03-30T03:29:13.597Z,54.80
2023-03-30T03:31:40.230Z,43.35
2023-03-30T03:34:06.945Z,42.80
2023-03-30T03:36:33.827Z,51.83
2023-03-30T03:39:00.583Z,51.63
2023-03-30T03:41:27.153Z,48.40
2023-03-30T03:43:53.754Z,48.28
2023-03-30T03:46:20.587Z,46.45
2023-03-30T03:48:47.157Z,42.13
2023-03-30T03:51:14.330Z,41.15
2023-03-30T03:53:40.882Z,44.05
2023-03-30T03:56:08.222Z,48.35
2023-03-30T03:58:34.777Z,43.25
2023-03-30T04:01:03.263Z,47.17
2023-03-30T04:03:30.602Z,49.50
2023-03-30T04:06:01.133Z,44.90
2023-03-30T04:08:28.849Z,49.65
2023-03-30T04:10:55.682Z,48.67
2023-03-30T04:13:22.300Z,41.53
2023-03-30T04:15:49.037Z,39.83
2023-03-30T04:18:15.812Z,43.30
2023-03-30T04:20:42.378Z,40.60
2023-03-30T04:23:09.841Z,41.70
2023-03-30T04:25:36.544Z,46.25
2023-03-30T04:28:05.173Z,47.42
2023-03-30T04:30:32.808Z,45.35
2023-03-30T04:33:05.197Z,42.45
2023-03-30T04:35:32.915Z,56.58
2023-03-30T04:38:00.571Z,49.28
2023-03-30T04:40:27.326Z,42.90
2023-03-30T04:42:54.799Z,50.65
2023-03-30T04:45:21.633Z,47.88
2023-03-30T04:47:48.272Z,45.85
2023-03-30T04:50:15.706Z,42.75
2023-03-30T04:52:42.322Z,38.72
2023-03-30T04:55:09.980Z,44.00
2023-03-30T04:57:36.724Z,45.35
2023-03-30T05:00:07.667Z,67.10
2023-03-30T05:02:34.517Z,121.78
2023-03-30T05:05:01.386Z,90.32
2023-03-30T05:07:28.127Z,56.40
2023-03-30T05:09:54.674Z,49.40
2023-03-30T05:12:21.587Z,73.70
2023-03-30T05:14:48.169Z,86.43
2023-03-30T05:17:14.816Z,119.85
2023-03-30T05:19:41.378Z,66.45
2023-03-30T05:22:07.928Z,72.53
2023-03-30T05:24:34.520Z,58.72
2023-03-30T05:27:02.413Z,48.40
2023-03-30T05:29:29.066Z,45.83
2023-03-30T05:31:55.835Z,49.58
2023-03-30T05:34:22.402Z,52.92
2023-03-30T05:36:48.962Z,48.53
2023-03-30T05:39:15.638Z,51.47
2023-03-30T05:41:42.162Z,47.13
2023-03-30T05:44:08.685Z,51.15
2023-03-30T05:46:35.307Z,54.33
2023-03-30T05:49:01.948Z,49.65
2023-03-30T05:51:28.524Z,49.70
2023-03-30T05:53:55.077Z,51.88
2023-03-30T05:56:23.582Z,51.97
2023-03-30T05:58:50.362Z,50.33
2023-03-30T06:01:17.141Z,55.10
2023-03-30T06:03:43.884Z,58.22
2023-03-30T06:06:10.991Z,52.00
2023-03-30T06:08:37.652Z,51.85
2023-03-30T06:11:05.289Z,53.00
2023-03-30T06:13:32.270Z,55.20
2023-03-30T06:16:00.241Z,60.30
2023-03-30T06:18:28.964Z,59.53
2023-03-30T06:20:55.577Z,60.13
2023-03-30T06:23:23.025Z,61.63
2023-03-30T06:25:53.159Z,59.88
2023-03-30T06:28:20.557Z,57.42
2023-03-30T06:30:49.147Z,56.58
2023-03-30T06:33:16.770Z,63.08
2023-03-30T06:35:51.515Z,57.15
2023-03-30T06:38:19.543Z,54.83
2023-03-30T06:40:46.118Z,55.92
2023-03-30T06:43:21.777Z,56.38
2023-03-30T06:45:52.714Z,50.10
2023-03-30T06:48:22.486Z,50.85
2023-03-30T06:50:49.216Z,47.70
2023-03-30T06:53:16.211Z,51.78
2023-03-30T06:55:42.919Z,48.28
2023-03-30T06:58:10.069Z,51.55
2023-03-30T07:00:36.885Z,49.22
2023-03-30T07:03:04.192Z,50.53
2023-03-30T07:05:31.270Z,50.88
2023-03-30T07:07:58.349Z,54.70
2023-03-30T07:10:25.780Z,48.55
2023-03-30T07:12:52.581Z,46.78
2023-03-30T07:15:19.305Z,49.05
2023-03-30T07:17:45.848Z,47.03
2023-03-30T07:20:16.100Z,51.17
2023-03-30T07:22:43.147Z,51.28
2023-03-30T07:25:10.224Z,48.45
2023-03-30T07:27:38.136Z,46.67
2023-03-30T07:30:17.914Z,52.03
2023-03-30T07:32:50.454Z,41.83
2023-03-30T07:35:17.403Z,56.20
2023-03-30T07:37:44.135Z,41.65
2023-03-30T07:40:11.943Z,46.75
2023-03-30T07:42:38.608Z,48.42
2023-03-30T07:45:06.408Z,48.65
2023-03-30T07:47:33.149Z,52.83
2023-03-30T07:49:59.739Z,52.58
2023-03-30T07:52:26.441Z,52.47
2023-03-30T07:54:54.762Z,55.63
2023-03-30T07:57:22.291Z,52.13
2023-03-30T07:59:49.272Z,56.30
2023-03-30T08:02:16.784Z,59.92
2023-03-30T08:04:44.639Z,58.70
2023-03-30T08:07:12.579Z,50.90
2023-03-30T08:09:39.204Z,68.30
2023-03-30T08:12:07.433Z,57.25
2023-03-30T08:14:33.990Z,53.25
2023-03-30T08:17:00.744Z,53.88
2023-03-30T08:19:28.579Z,55.97
2023-03-30T08:21:57.016Z,59.03
2023-03-30T08:24:23.729Z,60.83
2023-03-30T08:26:50.836Z,61.10
2023-03-30T08:29:18.858Z,51.95
2023-03-30T08:31:45.691Z,54.08
2023-03-30T08:34:12.440Z,59.47
2023-03-30T08:36:39.510Z,58.17
2023-03-30T08:39:06.352Z,57.05
2023-03-30T08:41:49.936Z,59.45
2023-03-30T08:44:38.840Z,58.95
2023-03-30T08:47:13.539Z,52.00
2023-03-30T08:49:59.522Z,59.47
2023-03-30T08:52:26.771Z,57.67
2023-03-30T08:54:54.882Z,56.20
2023-03-30T08:57:32.617Z,62.65
2023-03-30T09:00:21.061Z,66.07
2023-03-30T09:02:55.476Z,59.88
2023-03-30T09:05:29.792Z,60.03
2023-03-30T09:08:17.997Z,59.75
2023-03-30T09:11:07.116Z,68.47
2023-03-30T09:13:37.824Z,59.90
2023-03-30T09:16:18.949Z,62.85
2023-03-30T09:18:52.266Z,62.13
2023-03-30T09:21:23.026Z,54.35
2023-03-30T09:23:50.961Z,58.10
2023-03-30T09:26:29.605Z,68.60
2023-03-30T09:29:00.251Z,63.22
2023-03-30T09:31:40.802Z,65.05
2023-03-30T09:34:26.196Z,77.15
2023-03-30T09:37:05.946Z,68.55
2023-03-30T09:39:36.349Z,69.68
2023-03-30T09:42:02.842Z,72.68
2023-03-30T09:44:39.048Z,79.53
2023-03-30T09:47:29.680Z,73.47
2023-03-30T09:50:21.091Z,74.95
2023-03-30T09:53:03.497Z,69.15
2023-03-30T09:55:32.560Z,78.47
2023-03-30T09:58:11.588Z,85.45
2023-03-30T10:00:39.327Z,86.88
2023-03-30T10:03:07.428Z,98.63
2023-03-30T10:05:36.478Z,85.05
2023-03-30T10:08:19.537Z,87.72
2023-03-30T10:10:46.271Z,89.50
2023-03-30T10:13:15.631Z,93.78
2023-03-30T10:15:46.146Z,85.88
2023-03-30T10:18:24.894Z,70.13
2023-03-30T10:21:02.751Z,65.65
2023-03-30T10:23:43.256Z,66.25
2023-03-30T10:26:21.684Z,73.28
2023-03-30T10:28:57.346Z,65.05
2023-03-30T10:31:28.202Z,60.33
2023-03-30T10:33:58.171Z,49.60
2023-03-30T10:36:30.733Z,66.38
2023-03-30T10:39:08.526Z,63.40
2023-03-30T10:41:37.057Z,75.22
2023-03-30T10:44:19.579Z,58.83
2023-03-30T10:46:48.470Z,74.70
2023-03-30T10:49:31.206Z,82.32
2023-03-30T10:51:57.755Z,77.03
2023-03-30T10:54:47.248Z,85.45
2023-03-30T10:57:19.439Z,73.65
2023-03-30T10:59:46.510Z,78.07
2023-03-30T11:02:34.198Z,85.10
2023-03-30T11:05:25.950Z,92.40
2023-03-30T11:07:55.414Z,79.05
2023-03-30T11:10:31.550Z,80.90
2023-03-30T11:13:05.784Z,94.47
2023-03-30T11:15:47.566Z,65.88
2023-03-30T11:18:17.747Z,63.83
2023-03-30T11:21:06.685Z,56.53
2023-03-30T11:23:59.944Z,55.85
2023-03-30T11:26:39.252Z,54.90
2023-03-30T11:29:15.592Z,56.53
2023-03-30T11:34:37.261Z,72.88
2023-03-30T11:37:16.193Z,63.65
2023-03-30T11:39:51.886Z,70.20
2023-03-30T11:42:27.088Z,57.17
2023-03-30T11:44:53.963Z,54.33
2023-03-30T11:47:58.647Z,62.25
2023-03-30T11:51:01.863Z,51.13
2023-03-30T11:53:41.504Z,52.33
2023-03-30T11:56:14.265Z,50.38
2023-03-30T11:59:18.390Z,47.53
2023-03-30T12:01:54.059Z,44.67
2023-03-30T12:04:28.536Z,42.55
2023-03-30T12:07:00.996Z,44.72
2023-03-30T12:09:33.186Z,49.95
2023-03-30T12:12:07.846Z,53.97
2023-03-30T12:14:37.015Z,67.63
2023-03-30T12:17:17.241Z,54.05
2023-03-30T12:19:56.445Z,49.53
2023-03-30T12:22:32.553Z,54.47
2023-03-30T12:25:03.736Z,52.13
2023-03-30T12:27:35.620Z,49.45
2023-03-30T12:30:27.329Z,52.58
2023-03-30T12:33:03.554Z,55.42
2023-03-30T12:38:46.180Z,58.92
2023-03-30T12:41:20.621Z,57.17
2023-03-30T12:44:04.394Z,63.10
2023-03-30T12:46:54.127Z,54.22
2023-03-30T12:49:29.694Z,51.40
2023-03-30T12:52:27.188Z,49.40
2023-03-30T12:55:02.691Z,60.83
2023-03-30T12:57:51.109Z,58.13
2023-03-30T13:00:23.732Z,49.92
2023-03-30T13:03:15.354Z,55.08
2023-03-30T13:05:44.068Z,49.97
2023-03-30T13:08:25.861Z,49.28
2023-03-30T13:11:09.264Z,46.22
2023-03-30T13:13:53.066Z,39.20
2023-03-30T13:16:50.645Z,46.58
2023-03-30T13:19:24.698Z,45.17
2023-03-30T13:22:12.428Z,45.10
2023-03-30T13:24:43.521Z,45.75
2023-03-30T13:27:14.340Z,37.67
2023-03-30T13:30:11.490Z,38.45
2023-03-30T13:32:59.856Z,36.00
2023-03-30T13:35:44.917Z,39.25
2023-03-30T13:39:04.116Z,42.60
2023-03-30T13:42:02.651Z,43.47
2023-03-30T13:44:51.815Z,42.38
2023-03-30T13:47:39.474Z,34.80
2023-03-30T13:50:20.503Z,41.85
2023-03-30T13:52:49.027Z,38.13
2023-03-30T13:55:49.055Z,32.53
2023-03-30T13:58:15.554Z,34.92
2023-03-30T14:00:50.213Z,33.25
2023-03-30T14:03:27.409Z,38.22
2023-03-30T14:06:02.743Z,29.60
2023-03-30T14:08:36.728Z,33.00
2023-03-30T14:11:15.319Z,42.47
2023-03-30T14:13:43.427Z,33.08
2023-03-30T14:16:13.673Z,31.30
2023-03-30T14:18:40.352Z,30.55
2023-03-30T14:21:15.659Z,33.08
2023-03-30T14:23:50.201Z,22.23
2023-03-30T14:26:18.189Z,22.42
2023-03-30T14:28:46.898Z,15.68
2023-03-30T14:31:19.876Z,24.70
2023-03-30T14:33:47.133Z,20.60
2023-03-30T14:36:16.843Z,12.70
2023-03-30T14:38:47.198Z,15.55
2023-03-30T14:41:28.004Z,9.88
2023-03-30T14:44:00.878Z,9.38
2023-03-30T14:46:37.870Z,8.13
2023-03-30T14:49:05.149Z,13.35
2023-03-30T14:51:41.836Z,9.43
2023-03-30T14:54:21.561Z,12.00
2023-03-30T14:56:58.927Z,9.40
2023-03-30T14:59:27.397Z,10.30
2023-03-30T15:01:55.781Z,10.80
2023-03-30T15:04:31.987Z,11.30
2023-03-30T15:06:58.834Z,12.25
2023-03-30T15:09:26.127Z,15.85
2023-03-30T15:12:00.751Z,14.55
2023-03-30T15:14:34.061Z,14.23
2023-03-30T15:17:10.986Z,10.00
2023-03-30T15:19:38.201Z,14.48
2023-03-30T15:22:22.174Z,8.35
2023-03-30T15:24:48.820Z,13.40
2023-03-30T15:27:17.030Z,11.15
2023-03-30T15:29:44.950Z,9.95
2023-03-30T15:32:16.101Z,7.07
2023-03-30T15:35:20.699Z,12.98
2023-03-30T15:37:53.638Z,8.77
2023-03-30T15:40:35.200Z,9.70
2023-03-30T15:43:21.743Z,17.20
2023-03-30T15:45:54.683Z,12.60
2023-03-30T15:48:28.850Z,10.88
2023-03-30T15:51:04.085Z,9.75
2023-03-30T15:53:40.225Z,9.93
2023-03-30T15:56:12.766Z,12.52
2023-03-30T15:58:39.935Z,7.32
2023-03-30T16:01:09.401Z,11.18
2023-03-30T16:03:40.715Z,9.38
2023-03-30T16:06:12.760Z,6.50
2023-03-30T16:08:43.516Z,10.68
2023-03-30T16:11:11.406Z,8.85
2023-03-30T16:13:43.370Z,9.02
2023-03-30T16:16:11.134Z,12.63
2023-03-30T16:18:38.005Z,5.30
2023-03-30T16:21:05.416Z,15.23
2023-03-30T16:23:32.202Z,10.35
2023-03-30T16:25:58.824Z,7.45
2023-03-30T16:28:26.173Z,11.77
2023-03-30T16:30:55.615Z,5.90
2023-03-30T16:33:22.238Z,13.25
2023-03-30T16:35:48.958Z,13.45
2023-03-30T16:38:17.817Z,6.63
2023-03-30T16:40:46.168Z,10.10
2023-03-30T16:43:12.876Z,13.18
2023-03-30T16:45:39.718Z,8.95
2023-03-30T16:48:06.424Z,9.82
2023-03-30T16:50:47.190Z,9.73
2023-03-30T16:53:13.958Z,6.07
2023-03-30T16:55:41.046Z,10.32
2023-03-30T16:58:09.758Z,13.98
2023-03-30T17:00:40.873Z,9.63
2023-03-30T17:03:08.070Z,11.15
2023-03-30T17:05:34.948Z,8.93
2023-03-30T17:08:07.886Z,7.28
2023-03-30T17:10:39.611Z,12.52
2023-03-30T17:13:06.764Z,14.65
2023-03-30T17:15:35.218Z,10.13
2023-03-30T17:18:02.056Z,8.23
2023-03-30T17:20:37.291Z,9.43
2023-03-30T17:23:04.824Z,7.78
2023-03-30T17:25:31.511Z,6.28
2023-03-30T17:27:58.492Z,6.85
2023-03-30T17:30:30.490Z,9.30
2023-03-30T17:32:57.278Z,9.70
2023-03-30T17:35:26.179Z,6.18
2023-03-30T17:37:55.526Z,7.38
2023-03-30T17:40:30.831Z,6.43
2023-03-30T17:42:57.573Z,13.27
2023-03-30T17:45:26.637Z,8.75
2023-03-30T17:47:53.668Z,5.85
2023-03-30T17:50:27.441Z,9.48
2023-03-30T17:52:56.327Z,9.30
2023-03-30T17:55:26.624Z,5.28
2023-03-30T17:57:54.295Z,4.07
2023-03-30T18:00:25.739Z,5.35
2023-03-30T18:02:53.276Z,7.65
2023-03-30T18:05:22.208Z,9.00
2023-03-30T18:07:49.521Z,5.72
2023-03-30T18:10:32.813Z,6.95
2023-03-30T18:12:59.421Z,4.88
2023-03-30T18:15:28.005Z,5.38
2023-03-30T18:17:55.878Z,5.60
2023-03-30T18:20:36.131Z,5.80
2023-03-30T18:23:02.934Z,6.38
2023-03-30T18:25:32.639Z,8.38
2023-03-30T18:28:00.955Z,9.18
2023-03-30T18:30:40.218Z,6.13
2023-03-30T18:33:07.104Z,6.90
2023-03-30T18:35:35.894Z,5.22
2023-03-30T18:38:04.072Z,10.63
2023-03-30T18:40:37.164Z,5.90
2023-03-30T18:43:05.322Z,4.60
2023-03-30T18:45:41.100Z,5.72
2023-03-30T18:48:11.775Z,7.35
2023-03-30T18:50:39.448Z,5.72
2023-03-30T18:53:08.358Z,7.32
2023-03-30T18:55:40.418Z,5.47
2023-03-30T18:58:14.320Z,9.48
2023-03-30T19:00:41.145Z,9.02
2023-03-30T19:03:08.049Z,5.05
2023-03-30T19:05:35.251Z,6.47
2023-03-30T19:08:02.106Z,7.68
2023-03-30T19:10:31.397Z,8.75
2023-03-30T19:12:58.367Z,10.52
2023-03-30T19:15:29.572Z,7.72
2023-03-30T19:17:56.433Z,9.43
2023-03-30T19:20:25.149Z,8.70
2023-03-30T19:22:51.787Z,6.40
2023-03-30T19:25:20.589Z,14.20
2023-03-30T19:28:01.749Z,4.97
2023-03-30T19:30:32.282Z,6.43
2023-03-30T19:33:00.923Z,6.00
2023-03-30T19:35:28.718Z,4.88
2023-03-30T19:37:56.120Z,4.68
2023-03-30T19:40:23.701Z,7.32
2023-03-30T19:42:50.864Z,6.82
2023-03-30T19:45:22.915Z,9.32
2023-03-30T19:47:50.425Z,5.45
2023-03-30T19:50:18.953Z,5.28
2023-03-30T19:52:48.662Z,2.30
2023-03-30T19:55:16.317Z,4.80
2023-03-30T19:57:43.147Z,5.00
2023-03-30T20:00:15.709Z,5.38
2023-03-30T20:02:48.417Z,3.22
2023-03-30T20:05:15.874Z,2.88
2023-03-30T20:07:44.428Z,6.30
2023-03-30T20:10:14.333Z,8.82
2023-03-30T20:12:41.021Z,5.85
2023-03-30T20:15:09.574Z,7.95
2023-03-30T20:17:38.243Z,6.95
2023-03-30T20:20:08.620Z,13.05
2023-03-30T20:22:36.845Z,7.15
2023-03-30T20:25:06.515Z,11.00
2023-03-30T20:27:36.349Z,5.78
2023-03-30T20:30:06.383Z,8.25
2023-03-30T20:32:33.981Z,12.25
2023-03-30T20:35:00.663Z,11.55
2023-03-30T20:37:27.322Z,21.83
2023-03-30T20:39:54.057Z,4.53
2023-03-30T20:42:26.152Z,2.92
2023-03-30T20:44:53.575Z,5.32
2023-03-30T20:47:23.388Z,3.60
2023-03-30T20:49:50.173Z,3.80
2023-03-30T20:52:17.060Z,4.63
2023-03-30T20:54:44.743Z,4.57
2023-03-30T20:57:12.358Z,2.85
2023-03-30T20:59:39.649Z,4.78
2023-03-30T21:02:07.027Z,5.30
2023-03-30T21:04:34.066Z,3.35
2023-03-30T21:07:00.960Z,7.13
2023-03-30T21:09:27.896Z,5.68
2023-03-30T21:11:54.745Z,3.72
2023-03-30T21:14:21.604Z,3.88
2023-03-30T21:16:48.272Z,4.68
2023-03-30T21:19:14.928Z,4.32
2023-03-30T21:21:41.568Z,3.30
2023-03-30T21:24:10.685Z,2.10
2023-03-30T21:26:37.995Z,9.63
2023-03-30T21:29:05.614Z,3.63
2023-03-30T21:31:32.420Z,4.45
2023-03-30T21:33:59.534Z,5.47
2023-03-30T21:36:26.304Z,4.97
2023-03-30T21:38:53.025Z,6.18
2023-03-30T21:41:21.379Z,3.53
2023-03-30T21:43:48.219Z,6.00
2023-03-30T21:46:17.592Z,9.70
2023-03-30T21:48:45.900Z,5.63
2023-03-30T21:51:18.137Z,6.13
2023-03-30T21:53:48.251Z,8.30
2023-03-30T21:56:15.745Z,5.68
2023-03-30T21:58:42.578Z,6.93
2023-03-30T22:01:12.781Z,6.65
2023-03-30T22:03:42.005Z,7.40
2023-03-30T22:06:10.974Z,7.75
2023-03-30T22:08:37.567Z,9.05
2023-03-30T22:11:07.418Z,7.05
2023-03-30T22:13:34.149Z,7.50
2023-03-30T22:16:22.570Z,4.78
2023-03-30T22:18:51.519Z,7.25
2023-03-30T22:21:21.513Z,5.13
2023-03-30T22:23:48.168Z,6.97
2023-03-30T22:26:15.566Z,5.15
2023-03-30T22:28:43.336Z,11.55
2023-03-30T22:31:12.645Z,13.38
2023-03-30T22:33:39.484Z,7.78
2023-03-30T22:36:14.968Z,5.18
2023-03-30T22:38:42.506Z,9.30
2023-03-30T22:41:10.251Z,4.65
2023-03-30T22:43:37.297Z,7.43
2023-03-30T22:46:05.628Z,6.57
2023-03-30T22:48:32.922Z,8.50
2023-03-30T22:51:08.264Z,12.40
2023-03-30T22:53:35.400Z,12.70
2023-03-30T22:56:01.971Z,8.18
2023-03-30T22:58:28.516Z,8.38
2023-03-30T23:01:02.559Z,9.60
2023-03-30T23:03:29.520Z,7.88
2023-03-30T23:06:00.752Z,5.72
2023-03-30T23:08:30.758Z,5.20
2023-03-30T23:11:04.070Z,6.53
2023-03-30T23:13:37.347Z,7.93
2023-03-30T23:16:06.608Z,10.73
2023-03-30T23:18:34.556Z,4.93
2023-03-30T23:21:06.005Z,8.63
2023-03-30T23:23:34.299Z,9.52
2023-03-30T23:26:02.965Z,8.30
2023-03-30T23:28:32.457Z,7.05
2023-03-30T23:30:59.075Z,8.55
2023-03-30T23:33:25.713Z,7.53
2023-03-30T23:35:53.297Z,8.70
2023-03-30T23:38:20.108Z,9.48
2023-03-30T23:40:46.837Z,8.80
2023-03-30T23:43:13.445Z,4.60
2023-03-30T23:45:42.580Z,6.80
2023-03-30T23:48:09.108Z,6.75
2023-03-30T23:50:36.966Z,7.35
2023-03-30T23:53:03.705Z,5.80
2023-03-30T23:55:30.335Z,5.18
2023-03-30T23:57:56.896Z,6.85
